sensor_id;sensor_type;location;lat;lon;timestamp;temperature;humidity
33023;DHT22;19390;51.460;5.710;2024-03-02T00:02:07;9.10;99.90
33023;DHT22;19390;51.460;5.710;2024-03-02T00:04:33;9.10;99.90
33023;DHT22;19390;51.460;5.710;2024-03-02T00:06:59;9.20;99.90
33023;DHT22;19390;51.460;5.710;2024-03-02T00:09:25;9.30;99.90
33023;DHT22;19390;51.460;5.710;2024-03-02T00:11:50;9.30;99.90
33023;DHT22;19390;51.460;5.710;2024-03-02T00:14:16;9.30;99.90
33023;DHT22;19390;51.460;5.710;2024-03-02T00:16:42;9.30;99.90
33023;DHT22;19390;51.460;5.710;2024-03-02T00:19:09;9.30;99.90
33023;DHT22;19390;51.460;5.710;2024-03-02T00:21:35;9.30;99.90
33023;DHT22;19390;51.460;5.710;2024-03-02T00:24:07;9.30;99.90
33023;DHT22;19390;51.460;5.710;2024-03-02T00:26:38;9.30;99.90
33023;DHT22;19390;51.460;5.710;2024-03-02T00:29:04;9.30;99.90
33023;DHT22;19390;51.460;5.710;2024-03-02T00:31:32;9.40;99.90
33023;DHT22;19390;51.460;5.710;2024-03-02T00:34:06;9.40;99.90
33023;DHT22;19390;51.460;5.710;2024-03-02T00:36:31;9.50;99.90
33023;DHT22;19390;51.460;5.710;2024-03-02T00:38:57;9.40;99.90
33023;DHT22;19390;51.460;5.710;2024-03-02T00:41:30;9.40;99.90
33023;DHT22;19390;51.460;5.710;2024-03-02T00:44:12;9.40;99.90
33023;DHT22;19390;51.460;5.710;2024-03-02T00:46:42;9.00;99.90
33023;DHT22;19390;51.460;5.710;2024-03-02T00:49:21;8.60;99.90
33023;DHT22;19390;51.460;5.710;2024-03-02T00:51:49;8.40;99.90
33023;DHT22;19390;51.460;5.710;2024-03-02T00:54:15;8.30;99.90
33023;DHT22;19390;51.460;5.710;2024-03-02T00:56:44;8.20;99.90
33023;DHT22;19390;51.460;5.710;2024-03-02T00:59:10;8.20;99.90
33023;DHT22;19390;51.460;5.710;2024-03-02T01:01:36;8.10;99.90
33023;DHT22;19390;51.460;5.710;2024-03-02T01:04:02;8.00;99.90
33023;DHT22;19390;51.460;5.710;2024-03-02T01:06:29;8.00;99.90
33023;DHT22;19390;51.460;5.710;2024-03-02T01:08:55;8.00;99.90
33023;DHT22;19390;51.460;5.710;2024-03-02T01:11:20;7.90;99.90
33023;DHT22;19390;51.460;5.710;2024-03-02T01:13:49;7.90;99.90
33023;DHT22;19390;51.460;5.710;2024-03-02T01:16:15;7.80;99.90
33023;DHT22;19390;51.460;5.710;2024-03-02T01:18:43;7.80;99.90
33023;DHT22;19390;51.460;5.710;2024-03-02T01:21:09;7.80;99.90
33023;DHT22;19390;51.460;5.710;2024-03-02T01:23:34;7.80;99.90
33023;DHT22;19390;51.460;5.710;2024-03-02T01:26:00;7.80;99.90
33023;DHT22;19390;51.460;5.710;2024-03-02T01:28:25;7.80;99.90
33023;DHT22;19390;51.460;5.710;2024-03-02T01:30:51;7.80;99.90
33023;DHT22;19390;51.460;5.710;2024-03-02T01:33:17;7.70;99.90
33023;DHT22;19390;51.460;5.710;2024-03-02T01:35:43;7.70;99.90
33023;DHT22;19390;51.460;5.710;2024-03-02T01:38:09;7.70;99.90
33023;DHT22;19390;51.460;5.710;2024-03-02T01:40:35;7.70;99.90
33023;DHT22;19390;51.460;5.710;2024-03-02T01:43:01;7.60;99.90
33023;DHT22;19390;51.460;5.710;2024-03-02T01:45:28;7.60;99.90
33023;DHT22;19390;51.460;5.710;2024-03-02T01:47:54;7.60;99.90
33023;DHT22;19390;51.460;5.710;2024-03-02T01:50:30;7.60;99.90
33023;DHT22;19390;51.460;5.710;2024-03-02T01:52:56;7.60;99.90
33023;DHT22;19390;51.460;5.710;2024-03-02T01:55:22;7.60;99.90
33023;DHT22;19390;51.460;5.710;2024-03-02T01:57:48;7.60;99.90
33023;DHT22;19390;51.460;5.710;2024-03-02T02:00:16;7.60;99.90
33023;DHT22;19390;51.460;5.710;2024-03-02T02:02:42;7.60;99.90
33023;DHT22;19390;51.460;5.710;2024-03-02T02:05:08;7.50;99.90
33023;DHT22;19390;51.460;5.710;2024-03-02T02:07:35;7.60;99.90
33023;DHT22;19390;51.460;5.710;2024-03-02T02:10:01;7.60;99.90
33023;DHT22;19390;51.460;5.710;2024-03-02T02:12:27;7.60;99.90
33023;DHT22;19390;51.460;5.710;2024-03-02T02:14:53;7.60;99.90
33023;DHT22;19390;51.460;5.710;2024-03-02T02:17:19;7.60;99.90
33023;DHT22;19390;51.460;5.710;2024-03-02T02:19:44;7.60;99.90
33023;DHT22;19390;51.460;5.710;2024-03-02T02:22:11;7.50;99.90
33023;DHT22;19390;51.460;5.710;2024-03-02T02:24:40;7.50;99.90
33023;DHT22;19390;51.460;5.710;2024-03-02T02:27:07;7.50;99.90
33023;DHT22;19390;51.460;5.710;2024-03-02T02:29:33;7.50;99.90
33023;DHT22;19390;51.460;5.710;2024-03-02T02:31:58;7.50;99.90
33023;DHT22;19390;51.460;5.710;2024-03-02T02:34:24;7.50;99.90
33023;DHT22;19390;51.460;5.710;2024-03-02T02:36:49;7.40;99.90
33023;DHT22;19390;51.460;5.710;2024-03-02T02:39:16;7.50;99.90
33023;DHT22;19390;51.460;5.710;2024-03-02T02:41:43;7.50;99.90
33023;DHT22;19390;51.460;5.710;2024-03-02T02:44:08;7.50;99.90
33023;DHT22;19390;51.460;5.710;2024-03-02T02:46:36;7.50;99.90
33023;DHT22;19390;51.460;5.710;2024-03-02T02:49:03;7.50;99.90
33023;DHT22;19390;51.460;5.710;2024-03-02T02:51:29;7.50;99.90
33023;DHT22;19390;51.460;5.710;2024-03-02T02:53:54;7.50;99.90
33023;DHT22;19390;51.460;5.710;2024-03-02T02:56:20;7.40;99.90
33023;DHT22;19390;51.460;5.710;2024-03-02T02:58:46;7.40;99.90
33023;DHT22;19390;51.460;5.710;2024-03-02T03:01:11;7.50;99.90
33023;DHT22;19390;51.460;5.710;2024-03-02T03:03:37;7.50;99.90
33023;DHT22;19390;51.460;5.710;2024-03-02T03:06:03;7.50;99.90
33023;DHT22;19390;51.460;5.710;2024-03-02T03:08:28;7.50;99.90
33023;DHT22;19390;51.460;5.710;2024-03-02T03:10:54;7.50;99.90
33023;DHT22;19390;51.460;5.710;2024-03-02T03:13:20;7.50;99.90
33023;DHT22;19390;51.460;5.710;2024-03-02T03:15:46;7.50;99.90
33023;DHT22;19390;51.460;5.710;2024-03-02T03:18:11;7.50;99.90
33023;DHT22;19390;51.460;5.710;2024-03-02T03:20:37;7.50;99.90
33023;DHT22;19390;51.460;5.710;2024-03-02T03:23:03;7.40;99.90
33023;DHT22;19390;51.460;5.710;2024-03-02T03:25:30;7.40;99.90
33023;DHT22;19390;51.460;5.710;2024-03-02T03:27:55;7.40;99.90
33023;DHT22;19390;51.460;5.710;2024-03-02T03:30:21;7.40;99.90
33023;DHT22;19390;51.460;5.710;2024-03-02T03:32:47;7.40;99.90
33023;DHT22;19390;51.460;5.710;2024-03-02T03:35:13;7.40;99.90
33023;DHT22;19390;51.460;5.710;2024-03-02T03:37:40;7.40;99.90
33023;DHT22;19390;51.460;5.710;2024-03-02T03:40:06;7.40;99.90
33023;DHT22;19390;51.460;5.710;2024-03-02T03:42:38;7.40;99.90
33023;DHT22;19390;51.460;5.710;2024-03-02T03:45:04;7.40;99.90
33023;DHT22;19390;51.460;5.710;2024-03-02T03:47:33;7.40;99.90
33023;DHT22;19390;51.460;5.710;2024-03-02T03:49:59;7.40;99.90
33023;DHT22;19390;51.460;5.710;2024-03-02T03:52:24;7.40;99.90
33023;DHT22;19390;51.460;5.710;2024-03-02T03:54:50;7.40;99.90
33023;DHT22;19390;51.460;5.710;2024-03-02T03:57:16;7.40;99.90
33023;DHT22;19390;51.460;5.710;2024-03-02T03:59:42;7.40;99.90
33023;DHT22;19390;51.460;5.710;2024-03-02T04:02:08;7.30;99.90
33023;DHT22;19390;51.460;5.710;2024-03-02T04:04:35;7.30;99.90
33023;DHT22;19390;51.460;5.710;2024-03-02T04:07:01;7.30;99.90
33023;DHT22;19390;51.460;5.710;2024-03-02T04:09:26;7.30;99.90
33023;DHT22;19390;51.460;5.710;2024-03-02T04:11:52;7.30;99.90
33023;DHT22;19390;51.460;5.710;2024-03-02T04:14:18;7.30;99.90
33023;DHT22;19390;51.460;5.710;2024-03-02T04:16:44;7.30;99.90
33023;DHT22;19390;51.460;5.710;2024-03-02T04:19:09;7.30;99.90
33023;DHT22;19390;51.460;5.710;2024-03-02T04:21:35;7.30;99.90
33023;DHT22;19390;51.460;5.710;2024-03-02T04:24:01;7.20;99.90
33023;DHT22;19390;51.460;5.710;2024-03-02T04:26:26;7.20;99.90
33023;DHT22;19390;51.460;5.710;2024-03-02T04:28:55;7.20;99.90
33023;DHT22;19390;51.460;5.710;2024-03-02T04:31:21;7.10;99.90
33023;DHT22;19390;51.460;5.710;2024-03-02T04:33:46;7.10;99.90
33023;DHT22;19390;51.460;5.710;2024-03-02T04:36:12;7.00;99.90
33023;DHT22;19390;51.460;5.710;2024-03-02T04:38:38;7.00;99.90
33023;DHT22;19390;51.460;5.710;2024-03-02T04:41:07;6.90;99.90
33023;DHT22;19390;51.460;5.710;2024-03-02T04:43:33;6.90;99.90
33023;DHT22;19390;51.460;5.710;2024-03-02T04:45:59;6.90;99.90
33023;DHT22;19390;51.460;5.710;2024-03-02T04:48:25;6.90;99.90
33023;DHT22;19390;51.460;5.710;2024-03-02T04:50:51;6.90;99.90
33023;DHT22;19390;51.460;5.710;2024-03-02T04:53:17;6.90;99.90
33023;DHT22;19390;51.460;5.710;2024-03-02T04:55:42;6.80;99.90
33023;DHT22;19390;51.460;5.710;2024-03-02T04:58:08;6.80;99.90
33023;DHT22;19390;51.460;5.710;2024-03-02T05:00:34;6.80;99.90
33023;DHT22;19390;51.460;5.710;2024-03-02T05:03:00;6.90;99.90
33023;DHT22;19390;51.460;5.710;2024-03-02T05:05:25;6.90;99.90
33023;DHT22;19390;51.460;5.710;2024-03-02T05:07:52;6.90;99.90
33023;DHT22;19390;51.460;5.710;2024-03-02T05:10:17;6.90;99.90
33023;DHT22;19390;51.460;5.710;2024-03-02T05:12:43;6.90;99.90
33023;DHT22;19390;51.460;5.710;2024-03-02T05:15:10;7.00;99.90
33023;DHT22;19390;51.460;5.710;2024-03-02T05:17:36;6.90;99.90
33023;DHT22;19390;51.460;5.710;2024-03-02T05:20:04;6.90;99.90
33023;DHT22;19390;51.460;5.710;2024-03-02T05:22:29;6.90;99.90
33023;DHT22;19390;51.460;5.710;2024-03-02T05:24:55;6.90;99.90
33023;DHT22;19390;51.460;5.710;2024-03-02T05:27:21;6.90;99.90
33023;DHT22;19390;51.460;5.710;2024-03-02T05:29:47;6.90;99.90
33023;DHT22;19390;51.460;5.710;2024-03-02T05:32:13;6.80;99.90
33023;DHT22;19390;51.460;5.710;2024-03-02T05:34:38;6.70;99.90
33023;DHT22;19390;51.460;5.710;2024-03-02T05:37:04;6.70;99.90
33023;DHT22;19390;51.460;5.710;2024-03-02T05:39:29;6.70;99.90
33023;DHT22;19390;51.460;5.710;2024-03-02T05:41:55;6.70;99.90
33023;DHT22;19390;51.460;5.710;2024-03-02T05:44:21;6.60;99.90
33023;DHT22;19390;51.460;5.710;2024-03-02T05:46:47;6.60;99.90
33023;DHT22;19390;51.460;5.710;2024-03-02T05:49:13;6.60;99.90
33023;DHT22;19390;51.460;5.710;2024-03-02T05:51:38;6.50;99.90
33023;DHT22;19390;51.460;5.710;2024-03-02T05:54:04;6.50;99.90
33023;DHT22;19390;51.460;5.710;2024-03-02T05:56:30;6.60;99.90
33023;DHT22;19390;51.460;5.710;2024-03-02T05:58:55;6.60;99.90
33023;DHT22;19390;51.460;5.710;2024-03-02T06:01:40;6.70;99.90
33023;DHT22;19390;51.460;5.710;2024-03-02T06:04:06;6.60;99.90
33023;DHT22;19390;51.460;5.710;2024-03-02T06:06:32;6.50;99.90
33023;DHT22;19390;51.460;5.710;2024-03-02T06:09:00;6.50;99.90
33023;DHT22;19390;51.460;5.710;2024-03-02T06:11:25;6.40;99.90
33023;DHT22;19390;51.460;5.710;2024-03-02T06:13:51;6.30;99.90
33023;DHT22;19390;51.460;5.710;2024-03-02T06:16:16;6.30;99.90
33023;DHT22;19390;51.460;5.710;2024-03-02T06:18:42;6.30;99.90
33023;DHT22;19390;51.460;5.710;2024-03-02T06:21:08;6.20;99.90
33023;DHT22;19390;51.460;5.710;2024-03-02T06:23:33;6.20;99.90
33023;DHT22;19390;51.460;5.710;2024-03-02T06:26:00;6.20;99.90
33023;DHT22;19390;51.460;5.710;2024-03-02T06:28:26;6.20;99.90
33023;DHT22;19390;51.460;5.710;2024-03-02T06:30:52;6.20;99.90
33023;DHT22;19390;51.460;5.710;2024-03-02T06:33:17;6.10;99.90
33023;DHT22;19390;51.460;5.710;2024-03-02T06:35:43;6.10;99.90
33023;DHT22;19390;51.460;5.710;2024-03-02T06:38:09;6.20;99.90
33023;DHT22;19390;51.460;5.710;2024-03-02T06:40:34;6.10;99.90
33023;DHT22;19390;51.460;5.710;2024-03-02T06:43:00;6.10;99.90
33023;DHT22;19390;51.460;5.710;2024-03-02T06:45:25;6.10;99.90
33023;DHT22;19390;51.460;5.710;2024-03-02T06:47:51;6.10;99.90
33023;DHT22;19390;51.460;5.710;2024-03-02T06:50:17;6.10;99.90
33023;DHT22;19390;51.460;5.710;2024-03-02T06:52:42;6.10;99.90
33023;DHT22;19390;51.460;5.710;2024-03-02T06:55:08;6.20;99.90
33023;DHT22;19390;51.460;5.710;2024-03-02T06:57:34;6.20;99.90
33023;DHT22;19390;51.460;5.710;2024-03-02T07:00:00;6.30;99.90
33023;DHT22;19390;51.460;5.710;2024-03-02T07:02:25;6.50;99.90
33023;DHT22;19390;51.460;5.710;2024-03-02T07:04:55;6.80;99.90
33023;DHT22;19390;51.460;5.710;2024-03-02T07:07:21;7.20;99.90
33023;DHT22;19390;51.460;5.710;2024-03-02T07:09:47;7.20;99.90
33023;DHT22;19390;51.460;5.710;2024-03-02T07:12:13;7.40;99.90
33023;DHT22;19390;51.460;5.710;2024-03-02T07:14:39;7.60;99.90
33023;DHT22;19390;51.460;5.710;2024-03-02T07:17:23;7.70;99.90
33023;DHT22;19390;51.460;5.710;2024-03-02T07:19:49;8.10;99.90
33023;DHT22;19390;51.460;5.710;2024-03-02T07:22:14;8.80;99.90
33023;DHT22;19390;51.460;5.710;2024-03-02T07:24:41;9.30;99.90
33023;DHT22;19390;51.460;5.710;2024-03-02T07:27:07;9.30;99.90
33023;DHT22;19390;51.460;5.710;2024-03-02T07:29:33;10.10;99.90
33023;DHT22;19390;51.460;5.710;2024-03-02T07:31:59;10.70;99.90
33023;DHT22;19390;51.460;5.710;2024-03-02T07:34:25;10.20;99.90
33023;DHT22;19390;51.460;5.710;2024-03-02T07:36:50;10.20;99.90
33023;DHT22;19390;51.460;5.710;2024-03-02T07:39:16;10.10;99.90
33023;DHT22;19390;51.460;5.710;2024-03-02T07:41:42;10.40;99.90
33023;DHT22;19390;51.460;5.710;2024-03-02T07:44:07;10.60;99.90
33023;DHT22;19390;51.460;5.710;2024-03-02T07:46:33;10.80;99.90
33023;DHT22;19390;51.460;5.710;2024-03-02T07:48:58;11.20;99.90
33023;DHT22;19390;51.460;5.710;2024-03-02T07:51:24;10.90;99.90
33023;DHT22;19390;51.460;5.710;2024-03-02T07:53:50;10.60;99.90
33023;DHT22;19390;51.460;5.710;2024-03-02T07:56:15;10.70;99.90
33023;DHT22;19390;51.460;5.710;2024-03-02T07:58:48;10.50;99.90
33023;DHT22;19390;51.460;5.710;2024-03-02T08:01:14;10.50;99.90
33023;DHT22;19390;51.460;5.710;2024-03-02T08:03:40;10.30;99.90
33023;DHT22;19390;51.460;5.710;2024-03-02T08:06:06;10.60;99.90
33023;DHT22;19390;51.460;5.710;2024-03-02T08:08:32;10.00;99.90
33023;DHT22;19390;51.460;5.710;2024-03-02T08:10:57;9.60;99.90
33023;DHT22;19390;51.460;5.710;2024-03-02T08:13:23;9.50;99.90
33023;DHT22;19390;51.460;5.710;2024-03-02T08:15:49;9.80;99.90
33023;DHT22;19390;51.460;5.710;2024-03-02T08:18:14;9.80;99.90
33023;DHT22;19390;51.460;5.710;2024-03-02T08:20:40;9.50;99.90
33023;DHT22;19390;51.460;5.710;2024-03-02T08:23:06;9.70;99.90
33023;DHT22;19390;51.460;5.710;2024-03-02T08:25:33;10.00;99.90
33023;DHT22;19390;51.460;5.710;2024-03-02T08:27:59;10.40;99.90
33023;DHT22;19390;51.460;5.710;2024-03-02T08:30:25;10.60;99.90
33023;DHT22;19390;51.460;5.710;2024-03-02T08:32:50;11.00;99.90
33023;DHT22;19390;51.460;5.710;2024-03-02T08:35:16;10.90;99.90
33023;DHT22;19390;51.460;5.710;2024-03-02T08:37:42;11.10;99.90
33023;DHT22;19390;51.460;5.710;2024-03-02T08:40:09;11.20;99.90
33023;DHT22;19390;51.460;5.710;2024-03-02T08:42:36;11.30;99.90
33023;DHT22;19390;51.460;5.710;2024-03-02T08:45:01;12.00;99.90
33023;DHT22;19390;51.460;5.710;2024-03-02T08:47:27;12.90;99.90
33023;DHT22;19390;51.460;5.710;2024-03-02T08:49:53;12.40;99.90
33023;DHT22;19390;51.460;5.710;2024-03-02T08:52:19;11.90;99.90
33023;DHT22;19390;51.460;5.710;2024-03-02T08:54:44;11.70;99.90
33023;DHT22;19390;51.460;5.710;2024-03-02T08:57:10;11.30;99.90
33023;DHT22;19390;51.460;5.710;2024-03-02T08:59:36;11.30;99.90
33023;DHT22;19390;51.460;5.710;2024-03-02T09:02:01;12.00;99.90
33023;DHT22;19390;51.460;5.710;2024-03-02T09:04:28;11.90;99.90
33023;DHT22;19390;51.460;5.710;2024-03-02T09:06:54;12.70;99.90
33023;DHT22;19390;51.460;5.710;2024-03-02T09:09:19;13.00;99.90
33023;DHT22;19390;51.460;5.710;2024-03-02T09:11:46;12.90;99.90
33023;DHT22;19390;51.460;5.710;2024-03-02T09:14:12;12.20;99.90
33023;DHT22;19390;51.460;5.710;2024-03-02T09:16:37;12.50;99.90
33023;DHT22;19390;51.460;5.710;2024-03-02T09:19:03;12.70;99.90
33023;DHT22;19390;51.460;5.710;2024-03-02T09:21:29;11.90;99.90
33023;DHT22;19390;51.460;5.710;2024-03-02T09:23:55;12.80;99.90
33023;DHT22;19390;51.460;5.710;2024-03-02T09:26:22;13.20;99.90
33023;DHT22;19390;51.460;5.710;2024-03-02T09:28:50;14.10;99.90
33023;DHT22;19390;51.460;5.710;2024-03-02T09:31:16;14.40;99.90
33023;DHT22;19390;51.460;5.710;2024-03-02T09:33:41;13.70;99.90
33023;DHT22;19390;51.460;5.710;2024-03-02T09:36:20;13.30;99.90
33023;DHT22;19390;51.460;5.710;2024-03-02T09:38:46;12.90;99.90
33023;DHT22;19390;51.460;5.710;2024-03-02T09:41:12;12.60;99.90
33023;DHT22;19390;51.460;5.710;2024-03-02T09:43:38;12.70;99.90
33023;DHT22;19390;51.460;5.710;2024-03-02T09:46:03;12.70;99.90
33023;DHT22;19390;51.460;5.710;2024-03-02T09:48:29;13.40;99.90
33023;DHT22;19390;51.460;5.710;2024-03-02T09:50:55;13.10;99.90
33023;DHT22;19390;51.460;5.710;2024-03-02T09:53:22;13.40;99.90
33023;DHT22;19390;51.460;5.710;2024-03-02T09:55:49;14.00;99.90
33023;DHT22;19390;51.460;5.710;2024-03-02T09:58:14;14.40;99.90
33023;DHT22;19390;51.460;5.710;2024-03-02T10:00:40;14.90;99.90
33023;DHT22;19390;51.460;5.710;2024-03-02T10:03:12;13.90;99.90
33023;DHT22;19390;51.460;5.710;2024-03-02T10:05:38;13.70;99.90
33023;DHT22;19390;51.460;5.710;2024-03-02T10:08:03;13.00;99.90
33023;DHT22;19390;51.460;5.710;2024-03-02T10:10:37;13.00;99.90
33023;DHT22;19390;51.460;5.710;2024-03-02T10:13:06;14.20;99.90
33023;DHT22;19390;51.460;5.710;2024-03-02T10:15:33;14.40;99.90
33023;DHT22;19390;51.460;5.710;2024-03-02T10:17:59;14.30;99.90
33023;DHT22;19390;51.460;5.710;2024-03-02T10:20:26;14.20;99.90
33023;DHT22;19390;51.460;5.710;2024-03-02T10:22:54;14.60;99.90
33023;DHT22;19390;51.460;5.710;2024-03-02T10:25:32;14.80;99.90
33023;DHT22;19390;51.460;5.710;2024-03-02T10:27:59;15.30;99.90
33023;DHT22;19390;51.460;5.710;2024-03-02T10:30:26;15.30;99.90
33023;DHT22;19390;51.460;5.710;2024-03-02T10:32:53;15.00;99.90
33023;DHT22;19390;51.460;5.710;2024-03-02T10:35:21;15.60;99.90
33023;DHT22;19390;51.460;5.710;2024-03-02T10:37:48;15.50;99.90
33023;DHT22;19390;51.460;5.710;2024-03-02T10:40:14;16.40;99.90
33023;DHT22;19390;51.460;5.710;2024-03-02T10:42:42;16.90;99.90
33023;DHT22;19390;51.460;5.710;2024-03-02T10:45:09;17.10;99.90
33023;DHT22;19390;51.460;5.710;2024-03-02T10:47:38;16.50;99.90
33023;DHT22;19390;51.460;5.710;2024-03-02T10:50:07;15.90;99.90
33023;DHT22;19390;51.460;5.710;2024-03-02T10:52:37;16.00;99.90
33023;DHT22;19390;51.460;5.710;2024-03-02T10:55:03;16.50;99.90
33023;DHT22;19390;51.460;5.710;2024-03-02T10:57:52;16.20;99.90
33023;DHT22;19390;51.460;5.710;2024-03-02T11:00:19;15.90;99.90
33023;DHT22;19390;51.460;5.710;2024-03-02T11:02:52;16.20;99.90
33023;DHT22;19390;51.460;5.710;2024-03-02T11:05:28;15.90;99.90
33023;DHT22;19390;51.460;5.710;2024-03-02T11:08:06;15.50;99.90
33023;DHT22;19390;51.460;5.710;2024-03-02T11:13:27;15.50;99.90
33023;DHT22;19390;51.460;5.710;2024-03-02T11:15:55;16.10;99.90
33023;DHT22;19390;51.460;5.710;2024-03-02T11:18:25;16.70;99.90
33023;DHT22;19390;51.460;5.710;2024-03-02T11:20:51;16.90;99.90
33023;DHT22;19390;51.460;5.710;2024-03-02T11:23:17;17.00;99.90
33023;DHT22;19390;51.460;5.710;2024-03-02T11:25:43;15.80;99.90
33023;DHT22;19390;51.460;5.710;2024-03-02T11:28:09;16.70;99.90
33023;DHT22;19390;51.460;5.710;2024-03-02T11:33:04;18.50;99.90
33023;DHT22;19390;51.460;5.710;2024-03-02T11:35:41;20.30;99.90
33023;DHT22;19390;51.460;5.710;2024-03-02T11:38:13;20.20;99.90
33023;DHT22;19390;51.460;5.710;2024-03-02T11:40:40;19.50;99.90
33023;DHT22;19390;51.460;5.710;2024-03-02T11:43:06;18.80;99.90
33023;DHT22;19390;51.460;5.710;2024-03-02T11:45:33;18.50;99.90
33023;DHT22;19390;51.460;5.710;2024-03-02T11:47:59;19.80;99.90
33023;DHT22;19390;51.460;5.710;2024-03-02T11:50:42;19.10;99.90
33023;DHT22;19390;51.460;5.710;2024-03-02T11:53:10;18.70;99.90
33023;DHT22;19390;51.460;5.710;2024-03-02T11:55:37;19.30;99.90
33023;DHT22;19390;51.460;5.710;2024-03-02T11:58:04;18.60;99.90
33023;DHT22;19390;51.460;5.710;2024-03-02T12:00:29;18.70;99.90
33023;DHT22;19390;51.460;5.710;2024-03-02T12:03:09;18.10;99.90
33023;DHT22;19390;51.460;5.710;2024-03-02T12:05:36;18.00;99.90
33023;DHT22;19390;51.460;5.710;2024-03-02T12:08:03;16.70;99.90
33023;DHT22;19390;51.460;5.710;2024-03-02T12:10:29;17.70;99.90
33023;DHT22;19390;51.460;5.710;2024-03-02T12:15:29;16.80;99.90
33023;DHT22;19390;51.460;5.710;2024-03-02T12:17:56;16.70;99.90
33023;DHT22;19390;51.460;5.710;2024-03-02T12:20:23;17.00;99.90
33023;DHT22;19390;51.460;5.710;2024-03-02T12:22:51;17.70;99.90
33023;DHT22;19390;51.460;5.710;2024-03-02T12:25:22;16.80;99.90
33023;DHT22;19390;51.460;5.710;2024-03-02T12:27:49;16.70;99.90
33023;DHT22;19390;51.460;5.710;2024-03-02T12:30:19;17.10;99.90
33023;DHT22;19390;51.460;5.710;2024-03-02T12:32:45;18.00;99.90
33023;DHT22;19390;51.460;5.710;2024-03-02T12:35:12;17.90;99.90
33023;DHT22;19390;51.460;5.710;2024-03-02T12:37:51;18.00;99.90
33023;DHT22;19390;51.460;5.710;2024-03-02T12:40:18;18.50;99.90
33023;DHT22;19390;51.460;5.710;2024-03-02T12:42:45;18.10;99.90
33023;DHT22;19390;51.460;5.710;2024-03-02T12:45:11;18.80;99.90
33023;DHT22;19390;51.460;5.710;2024-03-02T12:47:39;18.90;99.90
33023;DHT22;19390;51.460;5.710;2024-03-02T12:50:05;18.50;99.90
33023;DHT22;19390;51.460;5.710;2024-03-02T12:52:31;17.90;99.90
33023;DHT22;19390;51.460;5.710;2024-03-02T12:55:04;17.50;99.90
33023;DHT22;19390;51.460;5.710;2024-03-02T12:57:31;17.60;99.90
33023;DHT22;19390;51.460;5.710;2024-03-02T13:00:02;17.00;99.90
33023;DHT22;19390;51.460;5.710;2024-03-02T13:02:34;17.10;99.90
33023;DHT22;19390;51.460;5.710;2024-03-02T13:05:00;16.50;99.90
33023;DHT22;19390;51.460;5.710;2024-03-02T13:07:25;16.20;99.90
33023;DHT22;19390;51.460;5.710;2024-03-02T13:09:52;16.00;99.90
33023;DHT22;19390;51.460;5.710;2024-03-02T13:12:21;16.00;99.90
33023;DHT22;19390;51.460;5.710;2024-03-02T13:14:53;16.60;99.90
33023;DHT22;19390;51.460;5.710;2024-03-02T13:17:19;17.10;99.90
33023;DHT22;19390;51.460;5.710;2024-03-02T13:19:58;17.50;99.90
33023;DHT22;19390;51.460;5.710;2024-03-02T13:22:25;17.20;99.90
33023;DHT22;19390;51.460;5.710;2024-03-02T13:24:52;18.00;99.90
33023;DHT22;19390;51.460;5.710;2024-03-02T13:27:19;19.00;99.90
33023;DHT22;19390;51.460;5.710;2024-03-02T13:29:46;19.00;99.90
33023;DHT22;19390;51.460;5.710;2024-03-02T13:32:13;19.40;99.90
33023;DHT22;19390;51.460;5.710;2024-03-02T13:34:39;19.10;99.90
33023;DHT22;19390;51.460;5.710;2024-03-02T13:37:04;20.40;99.90
33023;DHT22;19390;51.460;5.710;2024-03-02T13:39:31;20.60;99.90
33023;DHT22;19390;51.460;5.710;2024-03-02T13:42:00;19.20;99.90
33023;DHT22;19390;51.460;5.710;2024-03-02T13:44:31;20.00;99.90
33023;DHT22;19390;51.460;5.710;2024-03-02T13:46:58;17.80;99.90
33023;DHT22;19390;51.460;5.710;2024-03-02T13:49:24;16.90;99.90
33023;DHT22;19390;51.460;5.710;2024-03-02T13:51:50;17.50;99.90
33023;DHT22;19390;51.460;5.710;2024-03-02T13:54:15;17.70;99.90
33023;DHT22;19390;51.460;5.710;2024-03-02T13:56:41;17.50;99.90
33023;DHT22;19390;51.460;5.710;2024-03-02T13:59:08;18.10;99.90
33023;DHT22;19390;51.460;5.710;2024-03-02T14:01:34;18.30;99.90
33023;DHT22;19390;51.460;5.710;2024-03-02T14:03:59;19.00;99.90
33023;DHT22;19390;51.460;5.710;2024-03-02T14:06:26;19.70;99.90
33023;DHT22;19390;51.460;5.710;2024-03-02T14:08:53;19.20;99.90
33023;DHT22;19390;51.460;5.710;2024-03-02T14:11:18;19.40;99.90
33023;DHT22;19390;51.460;5.710;2024-03-02T14:13:44;19.00;99.90
33023;DHT22;19390;51.460;5.710;2024-03-02T14:16:15;19.30;99.90
33023;DHT22;19390;51.460;5.710;2024-03-02T14:18:41;19.40;99.90
33023;DHT22;19390;51.460;5.710;2024-03-02T14:21:07;19.70;99.90
33023;DHT22;19390;51.460;5.710;2024-03-02T14:23:33;19.30;99.90
33023;DHT22;19390;51.460;5.710;2024-03-02T14:25:59;19.20;99.90
33023;DHT22;19390;51.460;5.710;2024-03-02T14:28:25;19.40;99.90
33023;DHT22;19390;51.460;5.710;2024-03-02T14:30:51;19.10;99.90
33023;DHT22;19390;51.460;5.710;2024-03-02T14:33:17;18.90;99.90
33023;DHT22;19390;51.460;5.710;2024-03-02T14:35:44;18.10;99.90
33023;DHT22;19390;51.460;5.710;2024-03-02T14:38:11;17.70;99.90
33023;DHT22;19390;51.460;5.710;2024-03-02T14:40:37;17.60;99.90
33023;DHT22;19390;51.460;5.710;2024-03-02T14:43:02;17.10;99.90
33023;DHT22;19390;51.460;5.710;2024-03-02T14:45:28;16.80;99.90
33023;DHT22;19390;51.460;5.710;2024-03-02T14:47:55;16.30;99.90
33023;DHT22;19390;51.460;5.710;2024-03-02T14:50:21;15.50;99.90
33023;DHT22;19390;51.460;5.710;2024-03-02T14:52:46;15.30;99.90
33023;DHT22;19390;51.460;5.710;2024-03-02T14:55:12;15.30;99.90
33023;DHT22;19390;51.460;5.710;2024-03-02T14:57:38;15.10;99.90
33023;DHT22;19390;51.460;5.710;2024-03-02T15:00:04;14.90;99.90
33023;DHT22;19390;51.460;5.710;2024-03-02T15:02:33;15.00;99.90
33023;DHT22;19390;51.460;5.710;2024-03-02T15:04:59;15.30;99.90
33023;DHT22;19390;51.460;5.710;2024-03-02T15:07:25;15.90;99.90
33023;DHT22;19390;51.460;5.710;2024-03-02T15:09:51;15.80;99.90
33023;DHT22;19390;51.460;5.710;2024-03-02T15:12:16;15.90;99.90
33023;DHT22;19390;51.460;5.710;2024-03-02T15:14:43;15.50;99.90
33023;DHT22;19390;51.460;5.710;2024-03-02T15:17:15;15.50;99.90
33023;DHT22;19390;51.460;5.710;2024-03-02T15:19:45;15.60;99.90
33023;DHT22;19390;51.460;5.710;2024-03-02T15:22:11;15.90;99.90
33023;DHT22;19390;51.460;5.710;2024-03-02T15:24:37;15.60;99.90
33023;DHT22;19390;51.460;5.710;2024-03-02T15:27:03;15.40;99.90
33023;DHT22;19390;51.460;5.710;2024-03-02T15:29:31;15.40;99.90
33023;DHT22;19390;51.460;5.710;2024-03-02T15:31:57;15.50;99.90
33023;DHT22;19390;51.460;5.710;2024-03-02T15:34:23;15.40;99.90
33023;DHT22;19390;51.460;5.710;2024-03-02T15:36:50;15.10;99.90
33023;DHT22;19390;51.460;5.710;2024-03-02T15:39:15;14.90;99.90
33023;DHT22;19390;51.460;5.710;2024-03-02T15:41:43;14.80;99.90
33023;DHT22;19390;51.460;5.710;2024-03-02T15:44:09;14.80;99.90